createdAt,value
2023-03-29T00:02:07.968Z,78.00
2023-03-29T00:04:35.245Z,79.75
2023-03-29T00:07:04.801Z,81.71
2023-03-29T00:09:33.552Z,84.26
2023-03-29T00:12:01.979Z,83.72
2023-03-29T00:14:31.181Z,85.19
2023-03-29T00:16:59.112Z,85.28
2023-03-29T00:19:26.387Z,86.87
2023-03-29T00:21:53.347Z,87.26
2023-03-29T00:24:21.623Z,86.49
2023-03-29T00:26:48.783Z,87.57
2023-03-29T00:29:16.356Z,89.19
2023-03-29T00:31:46.174Z,89.08
2023-03-29T00:34:13.492Z,86.06
2023-03-29T00:36:40.730Z,85.62
2023-03-29T00:39:07.745Z,83.18
2023-03-29T00:41:34.897Z,80.80
2023-03-29T00:44:04.628Z,81.05
2023-03-29T00:46:32.146Z,80.10
2023-03-29T00:49:05.559Z,83.43
2023-03-29T00:51:38.494Z,86.58
2023-03-29T00:54:10.999Z,86.08
2023-03-29T00:56:40.828Z,83.87
2023-03-29T00:59:14.857Z,83.77
2023-03-29T01:01:54.518Z,84.62
2023-03-29T01:04:42.869Z,86.30
2023-03-29T01:07:18.288Z,86.12
2023-03-29T01:09:53.956Z,86.58
2023-03-29T01:12:25.376Z,85.94
2023-03-29T01:14:59.464Z,86.10
2023-03-29T01:17:26.603Z,87.39
2023-03-29T01:20:08.179Z,89.24
2023-03-29T01:23:02.369Z,90.39
2023-03-29T01:26:03.353Z,92.30
2023-03-29T01:28:47.098Z,93.92
2023-03-29T01:31:56.067Z,95.15
2023-03-29T01:34:31.969Z,95.65
2023-03-29T01:37:08.528Z,96.33
2023-03-29T01:39:35.609Z,94.17
2023-03-29T01:42:24.148Z,94.22
2023-03-29T01:45:12.895Z,93.62
2023-03-29T01:47:48.916Z,93.25
2023-03-29T01:50:29.402Z,93.08
2023-03-29T01:53:09.583Z,91.89
2023-03-29T01:55:41.830Z,93.91
2023-03-29T01:58:12.636Z,94.02
2023-03-29T02:00:41.541Z,94.64
2023-03-29T02:03:10.183Z,95.29
2023-03-29T02:05:42.723Z,95.67
2023-03-29T02:08:13.220Z,96.02
2023-03-29T02:10:40.809Z,97.03
2023-03-29T02:13:07.809Z,97.31
2023-03-29T02:15:34.768Z,98.52
2023-03-29T02:18:04.240Z,100.00
2023-03-29T02:20:40.809Z,100.00
2023-03-29T02:23:12.567Z,100.00
2023-03-29T02:25:40.376Z,100.00
2023-03-29T02:28:07.971Z,100.00
2023-03-29T02:31:20.385Z,100.00
2023-03-29T02:33:56.047Z,100.00
2023-03-29T02:36:46.971Z,100.00
2023-03-29T02:39:16.557Z,100.00
2023-03-29T02:41:47.326Z,100.00
2023-03-29T02:44:18.953Z,100.00
2023-03-29T02:46:49.631Z,100.00
2023-03-29T02:49:18.430Z,100.00
2023-03-29T02:51:49.335Z,100.00
2023-03-29T02:54:20.299Z,100.00
2023-03-29T02:56:56.650Z,100.00
2023-03-29T02:59:23.669Z,100.00
2023-03-29T03:01:50.901Z,100.00
2023-03-29T03:04:18.817Z,100.00
2023-03-29T03:06:45.697Z,100.00
2023-03-29T03:09:13.728Z,100.00
2023-03-29T03:11:43.351Z,100.00
2023-03-29T03:14:11.173Z,100.00
2023-03-29T03:16:38.180Z,100.00
2023-03-29T03:19:05.494Z,100.00
2023-03-29T03:21:32.555Z,100.00
2023-03-29T03:24:00.244Z,100.00
2023-03-29T03:26:30.368Z,100.00
2023-03-29T03:28:57.494Z,100.00
2023-03-29T03:31:57.780Z,100.00
2023-03-29T03:34:47.629Z,100.00
2023-03-29T03:37:15.688Z,100.00
2023-03-29T03:39:42.570Z,100.00
2023-03-29T03:42:10.695Z,100.00
2023-03-29T03:44:42.845Z,100.00
2023-03-29T03:47:28.631Z,100.00
2023-03-29T03:49:58.561Z,100.00
2023-03-29T03:52:27.226Z,100.00
2023-03-29T03:54:54.110Z,100.00
2023-03-29T03:57:40.062Z,100.00
2023-03-29T04:00:21.991Z,100.00
2023-03-29T04:03:11.342Z,100.00
2023-03-29T04:05:40.569Z,100.00
2023-03-29T04:08:08.743Z,100.00
2023-03-29T04:10:57.800Z,100.00
2023-03-29T04:13:35.047Z,100.00
2023-03-29T04:16:28.778Z,100.00
2023-03-29T04:19:00.328Z,100.00
2023-03-29T04:21:28.369Z,100.00
2023-03-29T04:23:55.403Z,100.00
2023-03-29T04:26:23.152Z,100.00
2023-03-29T04:29:05.431Z,100.00
2023-03-29T04:31:56.709Z,100.00
2023-03-29T04:34:46.747Z,100.00
2023-03-29T04:37:13.699Z,100.00
2023-03-29T04:39:41.338Z,100.00
2023-03-29T04:42:09.115Z,100.00
2023-03-29T04:44:36.090Z,100.00
2023-03-29T04:47:06.858Z,100.00
2023-03-29T04:49:33.853Z,100.00
2023-03-29T04:52:01.141Z,100.00
2023-03-29T04:54:30.550Z,100.00
2023-03-29T04:57:11.447Z,100.00
2023-03-29T05:00:01.631Z,100.00
2023-03-29T05:02:51.891Z,100.00
2023-03-29T05:05:19.597Z,100.00
2023-03-29T05:07:48.201Z,100.00
2023-03-29T05:10:18.544Z,100.00
2023-03-29T05:12:45.608Z,100.00
2023-03-29T05:15:12.667Z,100.00
2023-03-29T05:17:39.781Z,100.00
2023-03-29T05:20:11.863Z,100.00
2023-03-29T05:22:40.552Z,100.00
2023-03-29T05:25:12.007Z,100.00
2023-03-29T05:27:40.694Z,100.00
2023-03-29T05:30:10.457Z,98.68
2023-03-29T05:33:02.679Z,100.00
2023-03-29T05:35:30.491Z,100.00
2023-03-29T05:37:58.561Z,99.41
2023-03-29T05:40:26.451Z,95.68
2023-03-29T05:43:19.747Z,95.97
2023-03-29T05:45:46.775Z,99.94
2023-03-29T05:48:13.756Z,100.00
2023-03-29T05:50:47.200Z,100.00
2023-03-29T05:53:14.637Z,100.00
2023-03-29T05:55:42.678Z,100.00
2023-03-29T05:58:13.408Z,100.00
2023-03-29T06:00:43.117Z,99.26
2023-03-29T06:03:32.704Z,98.38
2023-03-29T06:06:05.166Z,98.81
2023-03-29T06:08:35.297Z,95.36
2023-03-29T06:11:13.596Z,89.78
2023-03-29T06:14:19.782Z,91.67
2023-03-29T06:16:53.683Z,91.87
2023-03-29T06:19:21.108Z,92.79
2023-03-29T06:21:47.968Z,92.64
2023-03-29T06:24:20.926Z,91.27
2023-03-29T06:26:53.976Z,88.87
2023-03-29T06:29:21.160Z,88.38
2023-03-29T06:31:49.471Z,92.27
2023-03-29T06:34:44.981Z,94.19
2023-03-29T06:37:25.043Z,83.76
2023-03-29T06:40:01.646Z,80.47
2023-03-29T06:42:38.106Z,77.78
2023-03-29T06:45:29.474Z,77.54
2023-03-29T06:47:59.150Z,74.86
2023-03-29T06:50:26.570Z,74.36
2023-03-29T06:53:04.749Z,73.72
2023-03-29T06:55:34.688Z,77.17
2023-03-29T06:58:15.688Z,76.02
2023-03-29T07:00:43.145Z,77.79
2023-03-29T07:03:25.450Z,77.48
2023-03-29T07:06:03.025Z,76.08
2023-03-29T07:08:32.018Z,77.18
2023-03-29T07:11:07.365Z,70.08
2023-03-29T07:13:37.537Z,64.18
2023-03-29T07:16:08.218Z,64.64
2023-03-29T07:19:05.390Z,65.73
2023-03-29T07:21:53.566Z,68.76
2023-03-29T07:24:23.856Z,69.36
2023-03-29T07:27:03.251Z,63.57
2023-03-29T07:29:32.416Z,64.40
2023-03-29T07:31:59.402Z,67.57
2023-03-29T07:34:44.851Z,67.15
2023-03-29T07:37:37.663Z,75.10
2023-03-29T07:40:11.564Z,75.47
2023-03-29T07:42:57.346Z,70.63
2023-03-29T07:45:28.783Z,65.69
2023-03-29T07:48:06.495Z,66.44
2023-03-29T07:50:53.755Z,66.94
2023-03-29T07:53:27.179Z,61.23
2023-03-29T07:55:56.191Z,59.21
2023-03-29T07:58:42.075Z,58.88
2023-03-29T08:01:10.946Z,55.63
2023-03-29T08:03:58.069Z,55.17
2023-03-29T08:06:42.814Z,56.62
2023-03-29T08:09:09.972Z,57.86
2023-03-29T08:11:40.023Z,49.71
2023-03-29T08:14:15.279Z,48.84
2023-03-29T08:16:57.348Z,50.31
2023-03-29T08:19:24.441Z,48.97
2023-03-29T08:22:01.433Z,48.79
2023-03-29T08:24:36.568Z,49.62
2023-03-29T08:27:06.897Z,50.55
2023-03-29T08:29:33.838Z,50.74
2023-03-29T08:32:00.944Z,52.94
2023-03-29T08:34:27.988Z,49.83
2023-03-29T08:37:21.023Z,50.15
2023-03-29T08:39:50.817Z,46.05
2023-03-29T08:42:51.266Z,47.10
2023-03-29T08:45:51.051Z,45.59
2023-03-29T08:48:44.799Z,43.85
2023-03-29T08:51:30.217Z,45.22
2023-03-29T08:54:02.359Z,46.31
2023-03-29T08:56:38.780Z,46.94
2023-03-29T08:59:26.903Z,44.65
2023-03-29T09:01:57.442Z,44.80
2023-03-29T09:04:30.717Z,45.19
2023-03-29T09:07:26.448Z,43.63
2023-03-29T09:09:55.011Z,44.10
2023-03-29T09:13:00.279Z,46.04
2023-03-29T09:15:38.525Z,43.87
2023-03-29T09:18:47.674Z,42.53
2023-03-29T09:21:50.892Z,43.95
2023-03-29T09:24:54.257Z,44.94
2023-03-29T09:27:44.227Z,43.11
2023-03-29T09:31:25.478Z,42.80
2023-03-29T09:33:59.426Z,45.16
2023-03-29T09:36:51.400Z,47.12
2023-03-29T09:39:21.469Z,45.44
2023-03-29T09:42:14.376Z,45.41
2023-03-29T09:44:50.652Z,43.75
2023-03-29T09:47:34.417Z,42.91
2023-03-29T09:50:29.523Z,44.51
2023-03-29T09:52:59.087Z,45.44
2023-03-29T09:55:31.410Z,43.70
2023-03-29T09:58:28.838Z,43.00
2023-03-29T10:01:00.822Z,43.93
2023-03-29T10:03:31.575Z,43.10
2023-03-29T10:06:11.627Z,44.86
2023-03-29T10:08:47.928Z,44.14
2023-03-29T10:11:20.701Z,44.65
2023-03-29T10:13:51.229Z,44.46
2023-03-29T10:16:29.285Z,46.33
2023-03-29T10:18:56.782Z,47.83
2023-03-29T10:21:24.038Z,46.74
2023-03-29T10:23:59.584Z,44.68
2023-03-29T10:26:32.997Z,43.19
2023-03-29T10:29:03.326Z,43.47
2023-03-29T10:31:34.277Z,43.35
2023-03-29T10:34:04.520Z,45.06
2023-03-29T10:36:31.620Z,43.38
2023-03-29T10:39:02.215Z,41.31
2023-03-29T10:41:34.360Z,42.06
2023-03-29T10:44:01.753Z,41.50
2023-03-29T10:46:40.972Z,42.67
2023-03-29T10:49:20.936Z,42.70
2023-03-29T10:51:49.686Z,42.88
2023-03-29T10:54:23.451Z,42.60
2023-03-29T10:56:56.824Z,42.37
2023-03-29T10:59:27.861Z,41.58
2023-03-29T11:02:13.586Z,42.76
2023-03-29T11:04:49.064Z,42.47
2023-03-29T11:07:24.599Z,43.33
2023-03-29T11:10:02.315Z,43.29
2023-03-29T11:12:49.892Z,42.87
2023-03-29T11:15:38.939Z,42.89
2023-03-29T11:18:41.872Z,42.29
2023-03-29T11:21:46.157Z,44.95
2023-03-29T11:24:34.931Z,43.14
2023-03-29T11:27:10.987Z,44.76
2023-03-29T11:29:59.919Z,45.80
2023-03-29T11:32:33.621Z,42.02
2023-03-29T11:35:32.743Z,40.61
2023-03-29T11:38:23.736Z,41.19
2023-03-29T11:41:09.667Z,42.07
2023-03-29T11:43:39.566Z,41.92
2023-03-29T11:46:27.645Z,41.96
2023-03-29T11:49:03.133Z,41.10
2023-03-29T11:51:37.081Z,39.72
2023-03-29T11:54:27.257Z,39.67
2023-03-29T11:57:18.416Z,41.50
2023-03-29T11:59:50.254Z,40.40
2023-03-29T12:02:29.860Z,40.26
2023-03-29T12:05:00.169Z,39.55
2023-03-29T12:07:33.352Z,38.84
2023-03-29T12:10:07.307Z,39.14
2023-03-29T12:12:49.242Z,38.94
2023-03-29T12:15:20.544Z,39.90
2023-03-29T12:17:50.845Z,41.55
2023-03-29T12:20:31.622Z,39.61
2023-03-29T12:23:01.174Z,39.33
2023-03-29T12:25:41.445Z,39.66
2023-03-29T12:28:26.286Z,40.41
2023-03-29T12:31:27.912Z,41.34
2023-03-29T12:34:25.872Z,41.44
2023-03-29T12:37:32.233Z,40.39
2023-03-29T12:40:28.568Z,39.27
2023-03-29T12:43:33.386Z,40.10
2023-03-29T12:46:27.837Z,39.91
2023-03-29T12:48:57.670Z,39.36
2023-03-29T12:51:34.617Z,39.69
2023-03-29T12:54:28.145Z,39.51
2023-03-29T12:57:00.637Z,39.75
2023-03-29T12:59:40.355Z,39.55
2023-03-29T13:02:14.230Z,39.78
2023-03-29T13:04:43.812Z,41.76
2023-03-29T13:07:23.096Z,42.67
2023-03-29T13:09:57.150Z,41.66
2023-03-29T13:12:39.703Z,42.07
2023-03-29T13:15:23.815Z,41.58
2023-03-29T13:18:16.041Z,41.81
2023-03-29T13:21:10.602Z,41.14
2023-03-29T13:23:59.918Z,42.04
2023-03-29T13:26:33.023Z,43.49
2023-03-29T13:29:31.010Z,42.69
2023-03-29T13:32:16.396Z,44.50
2023-03-29T13:34:58.086Z,45.23
2023-03-29T13:37:34.598Z,46.22
2023-03-29T13:40:02.031Z,46.88
2023-03-29T13:42:34.834Z,47.02
2023-03-29T13:45:21.967Z,47.50
2023-03-29T13:48:02.610Z,47.32
2023-03-29T13:51:05.329Z,47.96
2023-03-29T13:53:40.418Z,48.60
2023-03-29T13:56:15.856Z,50.46
2023-03-29T13:58:49.997Z,48.05
2023-03-29T14:01:53.742Z,46.91
2023-03-29T14:04:48.792Z,45.58
2023-03-29T14:07:21.364Z,45.71
2023-03-29T14:09:50.514Z,46.72
2023-03-29T14:12:17.934Z,47.17
2023-03-29T14:14:58.421Z,47.16
2023-03-29T14:17:30.509Z,46.61
2023-03-29T14:20:09.154Z,47.36
2023-03-29T14:22:36.252Z,45.77
2023-03-29T14:25:12.233Z,45.58
2023-03-29T14:27:39.149Z,47.01
2023-03-29T14:30:38.481Z,47.53
2023-03-29T14:33:05.634Z,47.28
2023-03-29T14:35:33.542Z,48.09
2023-03-29T14:38:01.830Z,47.52
2023-03-29T14:40:31.087Z,47.00
2023-03-29T14:43:00.493Z,46.97
2023-03-29T14:45:27.782Z,46.56
2023-03-29T14:47:54.837Z,47.14
2023-03-29T14:50:27.108Z,48.54
2023-03-29T14:52:54.794Z,47.54
2023-03-29T14:55:24.041Z,47.72
2023-03-29T14:57:54.911Z,48.29
2023-03-29T15:00:24.865Z,47.18
2023-03-29T15:03:16.297Z,47.02
2023-03-29T15:05:49.156Z,46.84
2023-03-29T15:08:23.748Z,47.09
2023-03-29T15:10:51.039Z,47.30
2023-03-29T15:13:26.327Z,46.53
2023-03-29T15:15:59.054Z,46.65
2023-03-29T15:18:40.295Z,45.04
2023-03-29T15:21:09.548Z,44.98
2023-03-29T15:23:41.903Z,44.58
2023-03-29T15:26:27.906Z,46.17
2023-03-29T15:29:12.643Z,44.38
2023-03-29T15:31:42.237Z,45.20
2023-03-29T15:34:14.983Z,44.41
2023-03-29T15:36:45.481Z,45.81
2023-03-29T15:39:14.594Z,45.25
2023-03-29T15:41:42.689Z,46.33
2023-03-29T15:44:11.081Z,46.82
2023-03-29T15:46:38.207Z,46.89
2023-03-29T15:49:05.341Z,48.46
2023-03-29T15:51:32.476Z,47.50
2023-03-29T15:53:59.453Z,46.65
2023-03-29T15:56:27.269Z,46.27
2023-03-29T15:59:01.878Z,46.85
2023-03-29T16:01:36.761Z,47.22
2023-03-29T16:04:14.823Z,46.23
2023-03-29T16:06:42.887Z,47.16
2023-03-29T16:09:12.173Z,47.65
2023-03-29T16:11:41.153Z,48.96
2023-03-29T16:14:25.508Z,48.64
2023-03-29T16:16:53.872Z,49.30
2023-03-29T16:19:21.104Z,48.60
2023-03-29T16:21:48.627Z,49.29
2023-03-29T16:24:19.917Z,49.79
2023-03-29T16:26:47.738Z,49.24
2023-03-29T16:29:17.493Z,49.83
2023-03-29T16:31:45.879Z,48.86
2023-03-29T16:34:13.938Z,47.53
2023-03-29T16:36:41.232Z,47.27
2023-03-29T16:39:08.201Z,47.40
2023-03-29T16:41:35.161Z,47.25
2023-03-29T16:44:02.209Z,47.75
2023-03-29T16:46:29.821Z,48.16
2023-03-29T16:48:58.137Z,48.93
2023-03-29T16:51:26.022Z,50.29
2023-03-29T16:53:53.037Z,50.65
2023-03-29T16:56:20.624Z,51.46
2023-03-29T16:58:47.760Z,51.73
2023-03-29T17:01:17.581Z,52.34
2023-03-29T17:03:44.716Z,52.85
2023-03-29T17:06:12.481Z,53.39
2023-03-29T17:08:57.792Z,52.74
2023-03-29T17:11:26.394Z,51.80
2023-03-29T17:13:53.369Z,51.69
2023-03-29T17:16:20.843Z,51.92
2023-03-29T17:18:47.967Z,51.58
2023-03-29T17:21:15.062Z,52.52
2023-03-29T17:23:42.182Z,52.28
2023-03-29T17:26:15.109Z,52.29
2023-03-29T17:28:45.578Z,53.04
2023-03-29T17:31:12.753Z,52.12
2023-03-29T17:33:39.751Z,52.33
2023-03-29T17:36:07.887Z,52.72
2023-03-29T17:38:35.563Z,52.06
2023-03-29T17:41:04.017Z,52.07
2023-03-29T17:43:32.194Z,52.11
2023-03-29T17:45:59.439Z,52.32
2023-03-29T17:48:28.843Z,52.28
2023-03-29T17:50:59.285Z,52.66
2023-03-29T17:53:26.297Z,52.39
2023-03-29T17:55:53.544Z,52.53
2023-03-29T17:58:20.866Z,52.90
2023-03-29T18:00:48.087Z,52.79
2023-03-29T18:03:15.511Z,53.35
2023-03-29T18:05:42.645Z,52.78
2023-03-29T18:08:09.692Z,53.39
2023-03-29T18:10:37.242Z,52.97
2023-03-29T18:13:04.338Z,53.06
2023-03-29T18:15:31.589Z,53.14
2023-03-29T18:17:58.814Z,53.31
2023-03-29T18:20:26.229Z,53.37
2023-03-29T18:22:53.564Z,53.57
2023-03-29T18:25:20.697Z,53.68
2023-03-29T18:27:47.948Z,54.36
2023-03-29T18:30:16.958Z,55.73
2023-03-29T18:32:44.254Z,53.92
2023-03-29T18:35:11.945Z,53.37
2023-03-29T18:37:39.091Z,54.08
2023-03-29T18:40:08.378Z,54.25
2023-03-29T18:42:36.028Z,55.14
2023-03-29T18:45:04.613Z,57.58
2023-03-29T18:47:32.169Z,58.35
2023-03-29T18:50:03.220Z,57.09
2023-03-29T18:52:30.559Z,57.15
2023-03-29T18:54:57.622Z,58.74
2023-03-29T18:57:24.853Z,59.47
2023-03-29T18:59:55.323Z,58.85
2023-03-29T19:02:23.036Z,60.51
2023-03-29T19:04:50.245Z,60.98
2023-03-29T19:07:18.031Z,59.57
2023-03-29T19:09:45.528Z,59.71
2023-03-29T19:12:12.750Z,59.90
2023-03-29T19:14:39.676Z,59.85
2023-03-29T19:17:06.648Z,59.27
2023-03-29T19:19:38.043Z,58.04
2023-03-29T19:22:05.530Z,59.03
2023-03-29T19:24:32.896Z,61.71
2023-03-29T19:27:00.131Z,61.54
2023-03-29T19:29:27.679Z,66.84
2023-03-29T19:31:56.603Z,68.67
2023-03-29T19:34:24.628Z,69.86
2023-03-29T19:36:55.546Z,71.14
2023-03-29T19:39:27.562Z,72.54
2023-03-29T19:41:57.478Z,71.61
2023-03-29T19:44:24.640Z,71.51
2023-03-29T19:46:55.133Z,72.81
2023-03-29T19:49:25.324Z,73.34
2023-03-29T19:51:54.734Z,74.97
2023-03-29T19:54:22.174Z,75.96
2023-03-29T19:56:51.314Z,76.81
2023-03-29T19:59:22.747Z,77.97
2023-03-29T20:01:53.193Z,77.94
2023-03-29T20:04:23.051Z,78.35
2023-03-29T20:06:52.173Z,80.12
2023-03-29T20:09:19.168Z,78.22
2023-03-29T20:11:47.112Z,77.13
2023-03-29T20:14:14.240Z,77.78
2023-03-29T20:16:44.998Z,76.86
2023-03-29T20:19:17.893Z,76.42
2023-03-29T20:21:46.244Z,74.41
2023-03-29T20:24:13.221Z,75.41
2023-03-29T20:26:40.373Z,76.31
2023-03-29T20:29:15.040Z,74.77
2023-03-29T20:31:42.312Z,74.68
2023-03-29T20:34:09.554Z,75.63
2023-03-29T20:36:37.708Z,76.62
2023-03-29T20:39:05.147Z,77.15
2023-03-29T20:41:33.985Z,76.50
2023-03-29T20:44:03.268Z,76.75
2023-03-29T20:46:33.628Z,75.75
2023-03-29T20:49:05.273Z,74.83
2023-03-29T20:51:32.477Z,75.62
2023-03-29T20:54:07.432Z,76.54
2023-03-29T20:56:39.162Z,77.32
2023-03-29T20:59:10.923Z,76.87
2023-03-29T21:01:41.045Z,73.86
2023-03-29T21:04:09.459Z,71.94
2023-03-29T21:06:37.065Z,70.84
2023-03-29T21:09:05.945Z,67.99
2023-03-29T21:11:33.697Z,65.95
2023-03-29T21:14:00.786Z,63.64
2023-03-29T21:16:29.599Z,61.77
2023-03-29T21:18:57.228Z,60.24
2023-03-29T21:21:24.355Z,58.47
2023-03-29T21:23:51.686Z,56.22
2023-03-29T21:26:18.744Z,56.58
2023-03-29T21:28:46.134Z,54.71
2023-03-29T21:31:13.155Z,54.78
2023-03-29T21:33:40.225Z,52.78
2023-03-29T21:36:08.475Z,52.21
2023-03-29T21:38:35.899Z,53.63
2023-03-29T21:41:03.491Z,52.68
2023-03-29T21:43:30.651Z,52.44
2023-03-29T21:45:57.985Z,52.27
2023-03-29T21:48:25.302Z,52.95
2023-03-29T21:50:52.265Z,53.78
2023-03-29T21:53:19.281Z,54.42
2023-03-29T21:55:51.766Z,54.22
2023-03-29T21:58:19.194Z,53.56
2023-03-29T22:00:47.323Z,54.69
2023-03-29T22:03:16.141Z,53.95
2023-03-29T22:05:44.209Z,53.91
2023-03-29T22:08:11.946Z,53.84
2023-03-29T22:10:41.524Z,54.59
2023-03-29T22:13:09.456Z,53.76
2023-03-29T22:15:36.420Z,54.58
2023-03-29T22:18:04.067Z,54.54
2023-03-29T22:20:35.886Z,53.81
2023-03-29T22:23:03.497Z,54.33
2023-03-29T22:25:30.417Z,55.79
2023-03-29T22:27:57.408Z,56.11
2023-03-29T22:30:24.378Z,55.33
2023-03-29T22:32:51.499Z,56.22
2023-03-29T22:35:18.595Z,57.91
2023-03-29T22:37:45.859Z,57.90
2023-03-29T22:40:13.528Z,56.59
2023-03-29T22:42:40.905Z,58.13
2023-03-29T22:45:09.207Z,58.92
2023-03-29T22:47:36.365Z,58.76
2023-03-29T22:50:04.044Z,59.11
2023-03-29T22:52:31.062Z,59.54
2023-03-29T22:54:58.036Z,59.88
2023-03-29T22:57:25.147Z,59.75
2023-03-29T22:59:52.357Z,58.89
2023-03-29T23:02:19.490Z,60.01
2023-03-29T23:04:46.588Z,60.21
2023-03-29T23:07:13.637Z,59.16
2023-03-29T23:09:40.718Z,60.24
2023-03-29T23:12:08.034Z,60.73
2023-03-29T23:14:35.726Z,60.90
2023-03-29T23:17:02.670Z,60.88
2023-03-29T23:19:29.603Z,61.18
2023-03-29T23:21:56.586Z,60.41
2023-03-29T23:24:23.742Z,60.86
2023-03-29T23:26:50.774Z,61.83
2023-03-29T23:29:17.711Z,60.42
2023-03-29T23:31:45.743Z,62.29
2023-03-29T23:34:13.727Z,61.33
2023-03-29T23:36:40.745Z,61.62
2023-03-29T23:39:08.210Z,62.49
2023-03-29T23:41:35.304Z,62.08
2023-03-29T23:44:03.991Z,62.20
2023-03-29T23:46:31.661Z,61.83
2023-03-29T23:48:59.228Z,61.15
2023-03-29T23:51:28.586Z,61.96
2023-03-29T23:53:56.660Z,62.61
2023-03-29T23:56:23.828Z,63.09
2023-03-29T23:58:51.300Z,61.90
